createdAt,value
2022-10-17T00:04:16.648Z,101733.19
2022-10-17T00:09:22.179Z,101749.13
2022-10-17T00:14:27.704Z,101772.98
2022-10-17T00:19:33.065Z,101767.21
2022-10-17T00:24:38.586Z,101743.36
2022-10-17T00:29:44.060Z,101742.88
2022-10-17T00:34:49.514Z,101760.30
2022-10-17T00:39:56.129Z,101746.92
2022-10-17T00:45:04.624Z,101754.70
2022-10-17T00:50:12.242Z,101757.69
2022-10-17T00:55:29.908Z,101764.03
2022-10-17T01:00:37.072Z,101769.03
2022-10-17T01:05:43.850Z,101759.78
2022-10-17T01:11:13.573Z,101761.34
2022-10-17T01:16:25.017Z,101771.16
2022-10-17T01:21:48.287Z,101764.43
2022-10-17T01:27:19.333Z,101767.99
2022-10-17T01:32:28.733Z,101756.56
2022-10-17T01:37:46.330Z,101748.69
2022-10-17T01:43:01.671Z,101749.08
2022-10-17T01:48:10.574Z,101763.42
2022-10-17T01:53:21.911Z,101768.63
2022-10-17T01:58:31.770Z,101767.64
2022-10-17T02:03:38.439Z,101764.47
2022-10-17T02:08:46.727Z,101769.77
2022-10-17T02:14:07.336Z,101770.84
2022-10-17T02:19:47.524Z,101763.12
2022-10-17T02:24:57.720Z,101756.86
2022-10-17T02:30:18.243Z,101764.29
2022-10-17T02:35:26.240Z,101767.94
2022-10-17T02:40:32.997Z,101765.06
2022-10-17T02:45:39.956Z,101763.23
2022-10-17T02:50:48.479Z,101754.08
2022-10-17T02:55:57.066Z,101745.55
2022-10-17T03:01:03.011Z,101743.33
2022-10-17T03:06:09.583Z,101746.41
2022-10-17T03:11:15.103Z,101740.37
2022-10-17T03:16:20.751Z,101731.98
2022-10-17T03:21:26.602Z,101723.59
2022-10-17T03:26:33.289Z,101735.03
2022-10-17T03:31:38.877Z,101743.30
2022-10-17T03:36:44.947Z,101765.63
2022-10-17T03:41:50.960Z,101776.77
2022-10-17T03:46:56.642Z,101770.33
2022-10-17T03:52:02.268Z,101764.29
2022-10-17T03:57:08.207Z,101763.23
2022-10-17T04:02:14.216Z,101751.98
2022-10-17T04:07:20.138Z,101746.77
2022-10-17T04:12:27.066Z,101742.73
2022-10-17T04:17:37.291Z,101734.65
2022-10-17T04:22:41.533Z,101736.86
2022-10-17T04:27:49.141Z,101726.09
2022-10-17T04:32:56.209Z,101732.73
2022-10-17T04:38:01.838Z,101743.98
2022-10-17T04:43:07.573Z,101736.95
2022-10-17T04:48:13.996Z,101731.87
2022-10-17T04:53:20.601Z,101722.70
2022-10-17T04:58:28.454Z,101713.46
2022-10-17T05:03:34.823Z,101716.81
2022-10-17T05:08:40.900Z,101711.34
2022-10-17T05:13:48.128Z,101702.95
2022-10-17T05:18:55.723Z,101701.81
2022-10-17T05:24:01.310Z,101699.81
2022-10-17T05:29:07.391Z,101706.03
2022-10-17T05:34:14.636Z,101701.34
2022-10-17T05:39:20.699Z,101715.31
2022-10-17T05:44:26.793Z,101714.53
2022-10-17T05:49:45.174Z,101709.34
2022-10-17T05:54:42.578Z,101706.29
2022-10-17T05:59:49.510Z,101712.25
2022-10-17T06:04:56.601Z,101720.12
2022-10-17T06:10:02.674Z,101719.77
2022-10-17T06:15:23.631Z,101729.38
2022-10-17T06:20:30.690Z,101730.06
2022-10-17T06:25:37.555Z,101734.83
2022-10-17T06:30:43.506Z,101743.87
2022-10-17T06:35:54.757Z,101745.45
2022-10-17T06:41:10.803Z,101742.61
2022-10-17T06:46:17.915Z,101742.23
2022-10-17T06:51:25.056Z,101738.31
2022-10-17T06:56:32.318Z,101735.03
2022-10-17T07:01:41.816Z,101736.19
2022-10-17T07:06:47.116Z,101734.36
2022-10-17T07:11:57.302Z,101738.14
2022-10-17T07:17:03.552Z,101737.00
2022-10-17T07:22:11.152Z,101753.89
2022-10-17T07:27:18.302Z,101746.09
2022-10-17T07:32:25.393Z,101760.67
2022-10-17T07:37:32.099Z,101753.92
2022-10-17T07:47:44.962Z,101753.62
2022-10-17T07:52:52.112Z,101753.98
2022-10-17T07:58:00.668Z,101751.63
2022-10-17T08:03:06.451Z,101752.72
2022-10-17T08:08:11.912Z,101746.02
2022-10-17T08:13:17.386Z,101739.83
2022-10-17T08:18:23.015Z,101737.33
2022-10-17T08:23:30.073Z,101729.74
2022-10-17T08:28:37.978Z,101724.30
2022-10-17T08:33:44.015Z,101719.55
2022-10-17T08:38:52.767Z,101727.38
2022-10-17T08:44:12.229Z,101718.06
2022-10-17T08:49:40.423Z,101719.06
2022-10-17T08:54:49.224Z,101719.02
2022-10-17T08:59:56.873Z,101706.70
2022-10-17T09:05:26.600Z,101695.99
2022-10-17T09:10:46.517Z,101690.82
2022-10-17T09:16:04.010Z,101690.68
2022-10-17T09:21:30.372Z,101686.75
2022-10-17T09:26:36.367Z,101692.80
2022-10-17T09:31:47.583Z,101683.77
2022-10-17T09:36:54.017Z,101688.47
2022-10-17T09:42:01.708Z,101674.98
2022-10-17T09:47:24.930Z,101680.20
2022-10-17T09:52:50.790Z,101684.49
2022-10-17T09:57:59.218Z,101682.27
2022-10-17T10:03:22.209Z,101675.78
2022-10-17T10:08:34.024Z,101687.59
2022-10-17T10:13:39.643Z,101693.63
2022-10-17T10:18:47.548Z,101689.61
2022-10-17T10:24:02.574Z,101674.88
2022-10-17T10:29:29.185Z,101678.30
2022-10-17T10:34:36.207Z,101668.64
2022-10-17T10:39:44.717Z,101674.97
2022-10-17T10:44:52.120Z,101668.08
2022-10-17T10:50:03.435Z,101667.88
2022-10-17T10:55:23.911Z,101658.81
2022-10-17T11:00:32.128Z,101652.66
2022-10-17T11:06:03.168Z,101653.98
2022-10-17T11:11:19.123Z,101660.03
2022-10-17T11:16:42.881Z,101658.66
2022-10-17T11:21:52.980Z,101656.30
2022-10-17T11:27:06.873Z,101659.52
2022-10-17T11:32:36.550Z,101655.78
2022-10-17T11:37:48.322Z,101645.67
2022-10-17T11:43:17.176Z,101644.66
2022-10-17T11:48:31.458Z,101640.26
2022-10-17T11:53:45.835Z,101634.26
2022-10-17T11:59:00.086Z,101627.63
2022-10-17T12:04:28.087Z,101626.81
2022-10-17T12:09:51.281Z,101606.77
2022-10-17T12:15:16.363Z,101603.98
2022-10-17T12:20:27.738Z,101607.91
2022-10-17T12:25:38.073Z,101604.47
2022-10-17T12:31:06.049Z,101609.39
2022-10-17T12:36:22.927Z,101600.33
2022-10-17T12:41:44.965Z,101599.22
2022-10-17T12:46:52.756Z,101588.72
2022-10-17T12:52:18.891Z,101591.09
2022-10-17T12:57:30.766Z,101586.33
2022-10-17T13:02:37.516Z,101580.00
2022-10-17T13:07:46.150Z,101592.52
2022-10-17T13:12:54.268Z,101587.55
2022-10-17T13:18:01.640Z,101582.80
2022-10-17T13:23:07.083Z,101576.41
2022-10-17T13:28:14.267Z,101573.17
2022-10-17T13:33:34.605Z,101572.67
2022-10-17T13:38:42.595Z,101581.22
2022-10-17T13:43:47.624Z,101580.88
2022-10-17T13:48:53.628Z,101576.37
2022-10-17T13:53:59.060Z,101569.43
2022-10-17T13:59:07.481Z,101562.10
2022-10-17T14:04:19.774Z,101566.20
2022-10-17T14:09:28.909Z,101564.43
2022-10-17T14:14:58.112Z,101571.88
2022-10-17T14:19:42.273Z,101563.27
2022-10-17T14:24:48.196Z,101557.08
2022-10-17T14:29:55.676Z,101553.18
2022-10-17T14:35:24.390Z,101544.64
2022-10-17T14:40:28.101Z,101546.50
2022-10-17T14:45:36.688Z,101543.33
2022-10-17T14:56:01.084Z,101534.36
2022-10-17T15:01:06.984Z,101534.81
2022-10-17T15:06:33.320Z,101539.52
2022-10-17T15:11:39.716Z,101547.23
2022-10-17T15:16:45.180Z,101553.36
2022-10-17T15:21:50.578Z,101558.13
2022-10-17T15:26:56.682Z,101553.45
2022-10-17T15:32:02.159Z,101550.70
2022-10-17T15:37:10.202Z,101560.25
2022-10-17T15:42:15.567Z,101562.84
2022-10-17T15:47:34.506Z,101562.73
2022-10-17T15:52:41.519Z,101560.23
2022-10-17T15:57:48.950Z,101569.81
2022-10-17T16:02:54.413Z,101568.05
2022-10-17T16:07:59.893Z,101575.39
2022-10-17T16:13:05.279Z,101583.64
2022-10-17T16:18:10.878Z,101591.73
2022-10-17T16:23:16.436Z,101588.89
2022-10-17T16:28:22.040Z,101585.64
2022-10-17T16:33:27.682Z,101592.82
2022-10-17T16:38:33.142Z,101600.69
2022-10-17T16:43:38.600Z,101602.60
2022-10-17T16:48:45.750Z,101599.55
2022-10-17T16:53:54.529Z,101604.27
2022-10-17T16:59:01.434Z,101607.64
2022-10-17T17:04:08.606Z,101601.97
2022-10-17T17:09:14.322Z,101606.82
2022-10-17T17:14:19.777Z,101600.15
2022-10-17T17:19:25.747Z,101599.65
2022-10-17T17:24:31.441Z,101610.19
2022-10-17T17:29:38.083Z,101610.82
2022-10-17T17:34:43.607Z,101611.59
2022-10-17T17:39:49.210Z,101603.73
2022-10-17T17:44:54.762Z,101607.45
2022-10-17T17:50:00.316Z,101611.67
2022-10-17T17:55:06.355Z,101607.23
2022-10-17T18:00:12.846Z,101608.46
2022-10-17T18:05:18.549Z,101611.19
2022-10-17T18:10:24.267Z,101614.41
2022-10-17T18:15:29.872Z,101626.80
2022-10-17T18:20:36.318Z,101624.57
2022-10-17T18:25:41.925Z,101630.29
2022-10-17T18:30:47.397Z,101634.67
2022-10-17T18:35:55.957Z,101639.52
2022-10-17T18:41:17.912Z,101636.80
2022-10-17T18:46:25.841Z,101635.34
2022-10-17T18:51:31.290Z,101641.19
2022-10-17T18:56:36.863Z,101642.32
2022-10-17T19:01:43.811Z,101651.22
2022-10-17T19:06:49.432Z,101653.44
2022-10-17T19:11:55.427Z,101649.27
2022-10-17T19:17:01.937Z,101655.34
2022-10-17T19:22:08.436Z,101662.80
2022-10-17T19:27:13.967Z,101667.02
2022-10-17T19:32:22.838Z,101659.72
2022-10-17T19:37:27.191Z,101668.15
2022-10-17T19:42:33.563Z,101672.98
2022-10-17T19:47:40.004Z,101673.62
2022-10-17T19:52:45.728Z,101674.88
2022-10-17T19:57:51.179Z,101692.62
2022-10-17T20:02:56.937Z,101693.52
2022-10-17T20:08:03.166Z,101702.06
2022-10-17T20:13:09.145Z,101705.83
2022-10-17T20:18:14.689Z,101715.12
2022-10-17T20:23:21.747Z,101719.08
2022-10-17T20:28:28.052Z,101721.70
2022-10-17T20:33:33.659Z,101725.05
2022-10-17T20:38:39.577Z,101729.39
2022-10-17T20:43:45.778Z,101738.17
2022-10-17T20:48:55.313Z,101742.99
2022-10-17T20:54:00.972Z,101739.78
2022-10-17T20:59:09.729Z,101744.34
2022-10-17T21:04:44.215Z,101748.77
2022-10-17T21:09:23.089Z,101752.52
2022-10-17T21:14:28.543Z,101751.03
2022-10-17T21:19:34.336Z,101759.61
2022-10-17T21:24:39.781Z,101760.61
2022-10-17T21:29:45.781Z,101765.06
2022-10-17T21:34:51.294Z,101762.50
2022-10-17T21:39:56.831Z,101769.41
2022-10-17T21:45:07.441Z,101770.03
2022-10-17T21:50:10.512Z,101777.81
2022-10-17T21:55:16.037Z,101780.66
2022-10-17T22:00:21.558Z,101781.77
2022-10-17T22:05:27.030Z,101780.06
2022-10-17T22:10:32.494Z,101777.44
2022-10-17T22:15:38.016Z,101774.97
2022-10-17T22:20:43.648Z,101787.36
2022-10-17T22:25:57.035Z,101790.31
2022-10-17T22:31:02.961Z,101791.55
2022-10-17T22:36:09.942Z,101788.34
2022-10-17T22:41:15.829Z,101798.45
2022-10-17T22:46:21.368Z,101799.44
2022-10-17T22:51:26.894Z,101803.30
2022-10-17T22:56:32.414Z,101821.39
2022-10-17T23:01:37.955Z,101809.28
2022-10-17T23:06:43.443Z,101806.44
2022-10-17T23:11:48.974Z,101788.66
2022-10-17T23:16:54.491Z,101785.45
2022-10-17T23:22:00.021Z,101802.50
2022-10-17T23:27:05.552Z,101811.10
2022-10-17T23:32:11.016Z,101818.28
2022-10-17T23:37:16.465Z,101807.52
2022-10-17T23:42:21.974Z,101815.03
2022-10-17T23:47:27.644Z,101819.11
2022-10-17T23:52:33.792Z,101812.70
2022-10-17T23:57:39.328Z,101809.35
